createdAt,value
2023-02-25T00:00:25.351Z,3.90
2023-02-25T00:01:25.394Z,3.96
2023-02-25T00:02:25.412Z,3.79
2023-02-25T00:03:25.544Z,3.82
2023-02-25T00:04:25.322Z,3.78
2023-02-25T00:05:25.315Z,3.80
2023-02-25T00:06:25.462Z,3.83
2023-02-25T00:07:25.314Z,3.88
2023-02-25T00:08:25.280Z,3.88
2023-02-25T00:09:25.286Z,3.88
2023-02-25T00:10:25.259Z,4.03
2023-02-25T00:11:25.255Z,3.90
2023-02-25T00:12:25.261Z,3.92
2023-02-25T00:13:25.270Z,3.96
2023-02-25T00:14:25.224Z,3.90
2023-02-25T00:15:25.218Z,4.00
2023-02-25T00:16:25.583Z,3.92
2023-02-25T00:17:25.218Z,3.98
2023-02-25T00:18:25.198Z,3.96
2023-02-25T00:19:25.194Z,3.92
2023-02-25T00:20:25.167Z,3.89
2023-02-25T00:21:25.192Z,3.94
2023-02-25T00:22:25.171Z,3.79
2023-02-25T00:23:25.142Z,3.85
2023-02-25T00:24:25.141Z,3.92
2023-02-25T00:25:25.119Z,3.86
2023-02-25T00:26:25.325Z,3.98
2023-02-25T00:27:25.119Z,3.90
2023-02-25T00:28:25.094Z,3.90
2023-02-25T00:29:25.089Z,3.90
2023-02-25T00:30:25.076Z,3.88
2023-02-25T00:31:25.206Z,3.90
2023-02-25T00:32:26.351Z,3.89
2023-02-25T00:33:25.048Z,3.89
2023-02-25T00:34:25.044Z,3.94
2023-02-25T00:35:25.042Z,3.90
2023-02-25T00:36:25.684Z,3.85
2023-02-25T00:37:25.041Z,3.83
2023-02-25T00:38:25.057Z,3.82
2023-02-25T00:39:25.023Z,3.75
2023-02-25T00:40:24.989Z,3.86
2023-02-25T00:41:24.972Z,3.83
2023-02-25T00:42:25.008Z,3.82
2023-02-25T00:43:24.953Z,3.79
2023-02-25T00:44:24.954Z,3.83
2023-02-25T00:45:24.931Z,3.76
2023-02-25T00:46:25.348Z,3.72
2023-02-25T00:47:24.952Z,3.80
2023-02-25T00:48:24.926Z,3.89
2023-02-25T00:49:32.105Z,3.79
2023-02-25T00:50:26.906Z,3.79
2023-02-25T00:51:24.887Z,3.71
2023-02-25T00:52:24.884Z,3.68
2023-02-25T00:53:24.858Z,3.61
2023-02-25T00:54:24.854Z,3.67
2023-02-25T00:55:24.844Z,3.61
2023-02-25T00:56:25.154Z,3.52
2023-02-25T00:57:24.851Z,3.54
2023-02-25T00:58:24.816Z,3.46
2023-02-25T00:59:24.802Z,3.46
2023-02-25T01:00:24.801Z,3.57
2023-02-25T01:01:24.874Z,3.46
2023-02-25T01:02:24.861Z,3.40
2023-02-25T01:03:24.767Z,3.49
2023-02-25T01:04:24.763Z,3.50
2023-02-25T01:05:24.771Z,3.57
2023-02-25T01:06:24.923Z,3.61
2023-02-25T01:07:24.756Z,3.57
2023-02-25T01:08:24.720Z,3.67
2023-02-25T01:09:24.715Z,3.64
2023-02-25T01:10:24.709Z,3.60
2023-02-25T01:11:24.701Z,3.65
2023-02-25T01:12:24.702Z,3.58
2023-02-25T01:13:24.685Z,3.57
2023-02-25T01:14:24.674Z,3.46
2023-02-25T01:15:24.683Z,3.57
2023-02-25T01:16:25.228Z,3.44
2023-02-25T01:17:24.658Z,3.58
2023-02-25T01:18:24.681Z,3.54
2023-02-25T01:19:24.617Z,3.47
2023-02-25T01:20:24.615Z,3.58
2023-02-25T01:21:24.601Z,3.49
2023-02-25T01:22:24.588Z,3.49
2023-02-25T01:23:24.604Z,3.49
2023-02-25T01:24:24.595Z,3.47
2023-02-25T01:25:24.567Z,3.49
2023-02-25T01:26:24.900Z,3.60
2023-02-25T01:27:24.570Z,3.52
2023-02-25T01:28:24.535Z,3.49
2023-02-25T01:29:24.515Z,3.52
2023-02-25T01:30:24.520Z,3.53
2023-02-25T01:31:24.658Z,3.52
2023-02-25T01:32:24.628Z,3.44
2023-02-25T01:33:24.488Z,3.46
2023-02-25T01:34:24.480Z,3.54
2023-02-25T01:35:24.467Z,3.39
2023-02-25T01:36:24.756Z,3.52
2023-02-25T01:37:24.483Z,3.50
2023-02-25T01:38:24.443Z,3.39
2023-02-25T01:39:26.285Z,3.46
2023-02-25T01:40:25.429Z,3.40
2023-02-25T01:41:24.410Z,3.53
2023-02-25T01:42:24.426Z,3.49
2023-02-25T01:43:24.417Z,3.42
2023-02-25T01:44:24.432Z,3.42
2023-02-25T01:45:24.396Z,3.44
2023-02-25T01:46:24.808Z,3.36
2023-02-25T01:47:24.422Z,3.47
2023-02-25T01:48:24.359Z,3.36
2023-02-25T01:49:24.356Z,3.50
2023-02-25T01:50:24.338Z,3.34
2023-02-25T01:51:24.326Z,3.42
2023-02-25T01:52:24.367Z,3.50
2023-02-25T01:53:24.338Z,3.49
2023-02-25T01:54:24.307Z,3.44
2023-02-25T01:55:24.299Z,3.46
2023-02-25T01:56:24.516Z,3.50
2023-02-25T01:57:24.289Z,3.52
2023-02-25T01:58:24.271Z,3.52
2023-02-25T01:59:24.268Z,3.57
2023-02-25T02:00:24.252Z,3.47
2023-02-25T02:01:24.241Z,3.49
2023-02-25T02:02:24.299Z,3.47
2023-02-25T02:03:24.249Z,3.49
2023-02-25T02:04:25.322Z,3.46
2023-02-25T02:05:24.200Z,3.46
2023-02-25T02:06:24.599Z,3.46
2023-02-25T02:07:24.232Z,3.49
2023-02-25T02:08:24.174Z,3.52
2023-02-25T02:09:24.158Z,3.43
2023-02-25T02:10:24.161Z,3.44
2023-02-25T02:11:24.142Z,3.54
2023-02-25T02:12:24.161Z,3.43
2023-02-25T02:13:24.125Z,3.46
2023-02-25T02:14:24.120Z,3.50
2023-02-25T02:15:24.109Z,3.53
2023-02-25T02:16:24.568Z,3.47
2023-02-25T02:17:24.160Z,3.44
2023-02-25T02:18:24.075Z,3.43
2023-02-25T02:19:24.075Z,3.44
2023-02-25T02:20:24.063Z,3.47
2023-02-25T02:21:24.060Z,3.49
2023-02-25T02:22:24.069Z,3.50
2023-02-25T02:23:24.078Z,3.47
2023-02-25T02:24:24.034Z,3.57
2023-02-25T02:25:24.084Z,3.36
2023-02-25T02:26:24.279Z,3.43
2023-02-25T02:27:24.045Z,3.27
2023-02-25T02:28:24.025Z,3.46
2023-02-25T02:29:24.059Z,3.47
2023-02-25T02:30:23.977Z,3.46
2023-02-25T02:31:23.967Z,3.49
2023-02-25T02:32:24.049Z,3.49
2023-02-25T02:33:23.978Z,3.39
2023-02-25T02:34:23.933Z,3.33
2023-02-25T02:35:23.929Z,3.36
2023-02-25T02:36:24.241Z,3.28
2023-02-25T02:37:23.903Z,3.31
2023-02-25T02:38:23.932Z,3.36
2023-02-25T02:39:23.894Z,3.25
2023-02-25T02:40:23.875Z,3.44
2023-02-25T02:41:23.869Z,3.49
2023-02-25T02:42:23.861Z,3.39
2023-02-25T02:43:23.888Z,3.34
2023-02-25T02:44:23.845Z,3.31
2023-02-25T02:45:23.887Z,3.25
2023-02-25T02:46:24.159Z,3.34
2023-02-25T02:47:23.814Z,3.24
2023-02-25T02:48:23.816Z,3.34
2023-02-25T02:49:23.793Z,3.40
2023-02-25T02:50:23.786Z,3.30
2023-02-25T02:51:23.776Z,3.42
2023-02-25T02:52:23.772Z,3.27
2023-02-25T02:53:23.808Z,3.40
2023-02-25T02:54:23.741Z,3.23
2023-02-25T02:55:23.730Z,3.44
2023-02-25T02:56:24.090Z,3.36
2023-02-25T02:57:23.725Z,3.33
2023-02-25T02:58:23.736Z,3.30
2023-02-25T02:59:23.834Z,3.34
2023-02-25T03:00:23.698Z,3.36
2023-02-25T03:01:23.758Z,3.47
2023-02-25T03:02:23.676Z,3.33
2023-02-25T03:03:23.673Z,3.36
2023-02-25T03:04:23.695Z,3.33
2023-02-25T03:05:23.655Z,3.28
2023-02-25T03:06:24.035Z,3.43
2023-02-25T03:07:23.639Z,3.27
2023-02-25T03:08:23.652Z,3.43
2023-02-25T03:09:23.622Z,3.39
2023-02-25T03:10:23.618Z,3.21
2023-02-25T03:11:23.621Z,3.40
2023-02-25T03:12:23.596Z,3.42
2023-02-25T03:13:23.671Z,3.24
2023-02-25T03:14:23.588Z,3.42
2023-02-25T03:15:23.564Z,3.34
2023-02-25T03:16:23.922Z,3.39
2023-02-25T03:17:23.551Z,3.47
2023-02-25T03:18:23.593Z,3.44
2023-02-25T03:19:23.533Z,3.42
2023-02-25T03:20:23.530Z,3.36
2023-02-25T03:21:23.527Z,3.43
2023-02-25T03:22:23.522Z,3.40
2023-02-25T03:23:23.608Z,3.39
2023-02-25T03:24:23.508Z,3.43
2023-02-25T03:25:23.531Z,3.40
2023-02-25T03:26:24.789Z,3.43
2023-02-25T03:27:23.474Z,3.39
2023-02-25T03:28:23.476Z,3.52
2023-02-25T03:29:23.455Z,3.53
2023-02-25T03:30:23.446Z,3.43
2023-02-25T03:31:23.440Z,3.49
2023-02-25T03:32:23.653Z,3.53
2023-02-25T03:33:23.440Z,3.50
2023-02-25T03:34:23.413Z,3.46
2023-02-25T03:35:23.401Z,3.46
2023-02-25T03:36:23.697Z,3.46
2023-02-25T03:37:23.387Z,3.44
2023-02-25T03:38:23.402Z,3.46
2023-02-25T03:39:23.370Z,3.49
2023-02-25T03:40:23.364Z,3.44
2023-02-25T03:41:23.348Z,3.50
2023-02-25T03:42:23.348Z,3.44
2023-02-25T03:43:23.361Z,3.43
2023-02-25T03:44:23.335Z,3.49
2023-02-25T03:45:23.324Z,3.43
2023-02-25T03:46:23.632Z,3.39
2023-02-25T03:47:23.340Z,3.34
2023-02-25T03:48:23.324Z,3.44
2023-02-25T03:49:23.289Z,3.28
2023-02-25T03:50:23.277Z,3.40
2023-02-25T03:51:23.267Z,3.33
2023-02-25T03:52:23.263Z,3.30
2023-02-25T03:53:23.317Z,3.25
2023-02-25T03:54:23.242Z,3.39
2023-02-25T03:55:23.241Z,3.33
2023-02-25T03:56:23.552Z,3.33
2023-02-25T03:57:23.210Z,3.39
2023-02-25T03:58:23.231Z,3.34
2023-02-25T03:59:23.198Z,3.28
2023-02-25T04:00:23.193Z,3.31
2023-02-25T04:01:23.180Z,3.25
2023-02-25T04:02:23.202Z,3.30
2023-02-25T04:03:23.177Z,3.36
2023-02-25T04:04:23.213Z,3.36
2023-02-25T04:05:23.162Z,3.31
2023-02-25T04:06:23.318Z,3.28
2023-02-25T04:07:23.123Z,3.33
2023-02-25T04:08:23.144Z,3.39
2023-02-25T04:09:23.118Z,3.34
2023-02-25T04:10:23.131Z,3.34
2023-02-25T04:11:23.097Z,3.39
2023-02-25T04:12:23.103Z,3.31
2023-02-25T04:13:23.071Z,3.21
2023-02-25T04:14:23.067Z,3.31
2023-02-25T04:15:23.070Z,3.28
2023-02-25T04:16:23.399Z,3.25
2023-02-25T04:17:23.047Z,3.25
2023-02-25T04:18:23.040Z,3.27
2023-02-25T04:19:23.022Z,3.23
2023-02-25T04:20:23.027Z,3.20
2023-02-25T04:21:22.998Z,3.30
2023-02-25T04:22:22.995Z,3.27
2023-02-25T04:23:23.028Z,3.23
2023-02-25T04:24:22.989Z,3.21
2023-02-25T04:25:22.961Z,3.30
2023-02-25T04:26:23.482Z,3.23
2023-02-25T04:27:22.948Z,3.23
2023-02-25T04:28:22.978Z,3.25
2023-02-25T04:29:22.937Z,3.24
2023-02-25T04:30:22.925Z,3.21
2023-02-25T04:31:23.058Z,3.21
2023-02-25T04:32:24.007Z,3.15
2023-02-25T04:33:22.935Z,3.23
2023-02-25T04:34:22.887Z,3.24
2023-02-25T04:35:22.874Z,3.24
2023-02-25T04:36:23.263Z,3.15
2023-02-25T04:37:22.876Z,3.25
2023-02-25T04:38:22.883Z,3.13
2023-02-25T04:39:22.852Z,3.12
2023-02-25T04:40:22.851Z,3.07
2023-02-25T04:41:22.843Z,3.15
2023-02-25T04:42:22.835Z,3.07
2023-02-25T04:43:22.841Z,3.06
2023-02-25T04:44:22.808Z,3.10
2023-02-25T04:45:24.344Z,3.05
2023-02-25T04:46:23.194Z,3.15
2023-02-25T04:47:22.799Z,3.18
2023-02-25T04:48:22.806Z,3.15
2023-02-25T04:49:22.762Z,3.25
2023-02-25T04:50:22.770Z,3.09
2023-02-25T04:51:22.748Z,3.07
2023-02-25T04:52:22.742Z,3.15
2023-02-25T04:53:22.779Z,3.15
2023-02-25T04:54:22.725Z,3.15
2023-02-25T04:55:22.721Z,3.25
2023-02-25T04:56:22.928Z,3.20
2023-02-25T04:57:22.703Z,3.21
2023-02-25T04:58:22.713Z,3.27
2023-02-25T04:59:35.984Z,3.28
2023-02-25T05:00:22.683Z,3.21
2023-02-25T05:01:22.802Z,3.20
2023-02-25T05:02:22.688Z,3.21
2023-02-25T05:03:22.683Z,3.23
2023-02-25T05:04:22.678Z,3.15
2023-02-25T05:05:22.641Z,3.28
2023-02-25T05:06:23.035Z,3.16
2023-02-25T05:07:22.631Z,3.18
2023-02-25T05:08:22.632Z,3.12
2023-02-25T05:09:22.599Z,3.21
2023-02-25T05:10:22.594Z,3.07
2023-02-25T05:11:22.593Z,3.20
2023-02-25T05:12:22.573Z,3.24
2023-02-25T05:13:22.590Z,3.23
2023-02-25T05:14:22.561Z,3.15
2023-02-25T05:15:22.554Z,3.09
2023-02-25T05:16:23.041Z,3.15
2023-02-25T05:17:22.525Z,3.13
2023-02-25T05:18:23.555Z,3.10
2023-02-25T05:19:22.518Z,3.15
2023-02-25T05:20:22.558Z,3.05
2023-02-25T05:21:22.515Z,3.10
2023-02-25T05:22:22.485Z,3.25
2023-02-25T05:23:22.517Z,3.25
2023-02-25T05:24:22.490Z,3.21
2023-02-25T05:25:22.459Z,3.21
2023-02-25T05:26:22.940Z,3.12
2023-02-25T05:27:22.449Z,3.16
2023-02-25T05:28:22.458Z,3.16
2023-02-25T05:29:22.460Z,3.10
2023-02-25T05:30:22.412Z,3.13
2023-02-25T05:31:22.589Z,3.15
2023-02-25T05:32:22.497Z,3.02
2023-02-25T05:33:22.405Z,3.13
2023-02-25T05:34:22.399Z,3.15
2023-02-25T05:35:22.374Z,3.07
2023-02-25T05:36:24.165Z,3.13
2023-02-25T05:37:22.350Z,3.13
2023-02-25T05:38:22.349Z,3.10
2023-02-25T05:39:22.370Z,3.10
2023-02-25T05:40:22.338Z,3.24
2023-02-25T05:41:22.326Z,3.15
2023-02-25T05:42:22.322Z,3.10
2023-02-25T05:43:22.313Z,3.13
2023-02-25T05:44:22.361Z,3.16
2023-02-25T05:45:22.299Z,3.15
2023-02-25T05:46:22.674Z,3.15
2023-02-25T05:47:22.278Z,3.18
2023-02-25T05:48:22.279Z,3.10
2023-02-25T05:49:22.280Z,3.13
2023-02-25T05:50:22.246Z,3.16
2023-02-25T05:51:23.288Z,3.16
2023-02-25T05:52:22.239Z,3.16
2023-02-25T05:53:22.226Z,3.13
2023-02-25T05:54:22.271Z,3.10
2023-02-25T05:55:22.207Z,3.13
2023-02-25T05:56:22.649Z,3.21
2023-02-25T05:57:22.195Z,3.20
2023-02-25T05:58:22.176Z,3.13
2023-02-25T05:59:22.195Z,3.06
2023-02-25T06:00:22.160Z,3.16
2023-02-25T06:01:22.159Z,3.06
2023-02-25T06:02:22.225Z,3.07
2023-02-25T06:03:22.236Z,3.13
2023-02-25T06:04:22.150Z,3.13
2023-02-25T06:05:22.128Z,3.20
2023-02-25T06:06:22.410Z,3.13
2023-02-25T06:07:22.108Z,3.13
2023-02-25T06:08:22.091Z,3.12
2023-02-25T06:09:22.153Z,3.16
2023-02-25T06:10:22.067Z,3.05
2023-02-25T06:11:22.087Z,3.10
2023-02-25T06:12:22.059Z,3.12
2023-02-25T06:13:22.070Z,3.09
2023-02-25T06:14:22.112Z,3.06
2023-02-25T06:15:22.032Z,3.03
2023-02-25T06:16:22.563Z,3.03
2023-02-25T06:17:22.009Z,2.95
2023-02-25T06:18:22.023Z,2.97
2023-02-25T06:19:22.010Z,3.07
2023-02-25T06:20:21.987Z,3.03
2023-02-25T06:21:21.985Z,2.98
2023-02-25T06:22:21.971Z,2.95
2023-02-25T06:23:21.951Z,2.95
2023-02-25T06:24:21.974Z,3.06
2023-02-25T06:25:21.938Z,3.09
2023-02-25T06:26:22.464Z,3.10
2023-02-25T06:27:21.938Z,3.05
2023-02-25T06:28:21.919Z,3.07
2023-02-25T06:29:21.922Z,3.09
2023-02-25T06:30:21.900Z,3.10
2023-02-25T06:31:21.937Z,3.13
2023-02-25T06:32:22.038Z,3.09
2023-02-25T06:33:21.874Z,2.92
2023-02-25T06:34:21.926Z,2.94
2023-02-25T06:35:21.893Z,3.05
2023-02-25T06:36:22.345Z,3.09
2023-02-25T06:37:21.839Z,3.06
2023-02-25T06:38:21.824Z,3.13
2023-02-25T06:39:21.835Z,3.10
2023-02-25T06:40:21.838Z,3.13
2023-02-25T06:41:21.822Z,3.09
2023-02-25T06:42:21.793Z,3.16
2023-02-25T06:43:21.773Z,3.16
2023-02-25T06:44:21.792Z,3.13
2023-02-25T06:45:21.785Z,3.10
2023-02-25T06:46:22.261Z,3.12
2023-02-25T06:47:21.762Z,3.15
2023-02-25T06:48:21.743Z,3.24
2023-02-25T06:49:21.750Z,3.06
2023-02-25T06:50:21.719Z,3.06
2023-02-25T06:51:21.717Z,3.13
2023-02-25T06:52:21.705Z,3.07
2023-02-25T06:53:21.725Z,3.12
2023-02-25T06:54:21.714Z,2.98
2023-02-25T06:55:21.684Z,3.03
2023-02-25T06:56:22.357Z,3.05
2023-02-25T06:57:21.654Z,3.06
2023-02-25T06:58:21.652Z,3.07
2023-02-25T06:59:21.666Z,2.95
2023-02-25T07:00:21.635Z,3.00
2023-02-25T07:01:21.659Z,2.85
2023-02-25T07:02:21.622Z,2.87
2023-02-25T07:03:21.608Z,2.76
2023-02-25T07:04:21.728Z,2.84
2023-02-25T07:05:21.601Z,2.92
2023-02-25T07:06:22.002Z,2.82
2023-02-25T07:07:21.599Z,2.77
2023-02-25T07:08:21.574Z,2.85
2023-02-25T07:09:21.610Z,2.81
2023-02-25T07:10:21.582Z,2.84
2023-02-25T07:11:21.580Z,2.92
2023-02-25T07:12:21.532Z,2.91
2023-02-25T07:13:21.533Z,2.88
2023-02-25T07:14:21.556Z,2.87
2023-02-25T07:15:21.524Z,2.89
2023-02-25T07:16:21.827Z,2.95
2023-02-25T07:17:22.498Z,2.95
2023-02-25T07:18:21.505Z,2.89
2023-02-25T07:19:21.496Z,2.87
2023-02-25T07:20:21.463Z,2.89
2023-02-25T07:21:21.462Z,2.97
2023-02-25T07:22:24.087Z,3.02
2023-02-25T07:23:21.470Z,2.85
2023-02-25T07:24:21.444Z,2.89
2023-02-25T07:25:22.499Z,3.05
2023-02-25T07:26:21.743Z,2.94
2023-02-25T07:27:21.440Z,2.87
2023-02-25T07:28:21.418Z,2.88
2023-02-25T07:29:21.432Z,2.81
2023-02-25T07:30:21.401Z,2.87
2023-02-25T07:31:21.525Z,2.81
2023-02-25T07:32:21.543Z,2.81
2023-02-25T07:33:21.388Z,2.69
2023-02-25T07:34:21.359Z,2.64
2023-02-25T07:35:21.339Z,2.58
2023-02-25T07:36:21.336Z,2.64
2023-02-25T07:37:21.322Z,2.76
2023-02-25T07:38:21.336Z,2.67
2023-02-25T07:39:21.349Z,2.69
2023-02-25T07:40:21.305Z,2.67
2023-02-25T07:41:21.479Z,2.69
2023-02-25T07:42:21.312Z,2.67
2023-02-25T07:43:21.283Z,2.63
2023-02-25T07:44:21.299Z,2.70
2023-02-25T07:45:21.263Z,2.59
2023-02-25T07:46:21.278Z,2.76
2023-02-25T07:47:21.249Z,2.70
2023-02-25T07:48:21.246Z,2.76
2023-02-25T07:49:21.269Z,2.63
2023-02-25T07:50:21.237Z,2.70
2023-02-25T07:51:21.515Z,2.55
2023-02-25T07:52:21.230Z,2.58
2023-02-25T07:53:21.222Z,2.49
2023-02-25T07:54:21.213Z,2.59
2023-02-25T07:55:21.205Z,2.49
2023-02-25T07:56:21.185Z,2.59
2023-02-25T07:57:21.177Z,2.58
2023-02-25T07:58:21.173Z,2.63
2023-02-25T07:59:21.182Z,2.61
2023-02-25T08:00:21.160Z,2.66
2023-02-25T08:01:21.611Z,2.61
2023-02-25T08:02:21.196Z,2.69
2023-02-25T08:03:21.127Z,2.70
2023-02-25T08:04:21.167Z,2.66
2023-02-25T08:05:21.105Z,2.76
2023-02-25T08:06:21.103Z,2.85
2023-02-25T08:07:21.080Z,2.71
2023-02-25T08:08:21.079Z,2.79
2023-02-25T08:09:21.095Z,2.81
2023-02-25T08:10:21.058Z,2.88
2023-02-25T08:11:21.240Z,2.88
2023-02-25T08:12:21.042Z,2.85
2023-02-25T08:13:21.034Z,2.95
2023-02-25T08:14:21.037Z,2.97
2023-02-25T08:15:21.018Z,2.92
2023-02-25T08:16:21.079Z,2.92
2023-02-25T08:17:20.997Z,3.05
2023-02-25T08:18:20.990Z,3.05
2023-02-25T08:19:21.015Z,3.16
2023-02-25T08:20:20.974Z,3.23
2023-02-25T08:21:21.405Z,3.21
2023-02-25T08:22:20.952Z,3.18
2023-02-25T08:23:21.006Z,3.21
2023-02-25T08:24:20.970Z,3.24
2023-02-25T08:25:20.920Z,3.33
2023-02-25T08:26:20.936Z,3.34
2023-02-25T08:27:20.914Z,3.28
2023-02-25T08:28:20.914Z,3.39
2023-02-25T08:29:20.901Z,3.25
2023-02-25T08:30:20.880Z,3.28
2023-02-25T08:31:21.080Z,3.42
2023-02-25T08:32:20.975Z,3.46
2023-02-25T08:33:20.839Z,3.40
2023-02-25T08:34:20.860Z,3.50
2023-02-25T08:35:20.823Z,3.47
2023-02-25T08:36:20.819Z,3.40
2023-02-25T08:37:21.817Z,3.39
2023-02-25T08:38:20.789Z,3.46
2023-02-25T08:39:20.832Z,3.44
2023-02-25T08:40:20.784Z,3.52
2023-02-25T08:41:21.115Z,3.49
2023-02-25T08:42:20.766Z,3.46
2023-02-25T08:43:20.737Z,3.40
2023-02-25T08:44:20.754Z,3.57
2023-02-25T08:45:20.720Z,3.42
2023-02-25T08:46:21.334Z,3.53
2023-02-25T08:47:21.702Z,3.44
2023-02-25T08:48:20.702Z,3.50
2023-02-25T08:49:20.713Z,3.47
2023-02-25T08:50:20.689Z,3.54
2023-02-25T08:51:20.911Z,3.61
2023-02-25T08:52:20.660Z,3.76
2023-02-25T08:53:20.661Z,3.96
2023-02-25T08:54:20.675Z,3.92
2023-02-25T08:55:20.667Z,4.06
2023-02-25T08:56:20.613Z,4.03
2023-02-25T08:57:20.615Z,4.06
2023-02-25T08:58:20.596Z,4.03
2023-02-25T08:59:20.591Z,3.90
2023-02-25T09:00:20.592Z,3.49
2023-02-25T09:01:20.697Z,3.16
2023-02-25T09:02:20.588Z,3.12
2023-02-25T09:03:20.582Z,2.94
2023-02-25T09:04:20.621Z,2.81
2023-02-25T09:05:20.848Z,2.63
2023-02-25T09:06:21.530Z,2.51
2023-02-25T09:07:20.504Z,2.38
2023-02-25T09:08:20.498Z,2.20
2023-02-25T09:09:20.505Z,1.99
2023-02-25T09:10:20.499Z,1.82
2023-02-25T09:11:20.519Z,1.69
2023-02-25T09:12:20.961Z,1.42
2023-02-25T09:13:20.449Z,1.29
2023-02-25T09:14:20.446Z,1.40
2023-02-25T09:15:20.461Z,1.37
2023-02-25T09:16:20.640Z,1.46
2023-02-25T09:17:20.429Z,1.44
2023-02-25T09:18:20.422Z,1.43
2023-02-25T09:19:20.393Z,1.42
2023-02-25T09:20:20.409Z,1.51
2023-02-25T09:21:20.402Z,1.55
2023-02-25T09:22:20.377Z,1.52
2023-02-25T09:23:20.377Z,1.61
2023-02-25T09:24:20.365Z,1.79
2023-02-25T09:25:20.378Z,1.79
2023-02-25T09:26:20.343Z,1.93
2023-02-25T09:27:20.349Z,2.06
2023-02-25T09:28:20.326Z,2.16
2023-02-25T09:29:20.317Z,2.22
2023-02-25T09:30:20.333Z,2.34
2023-02-25T09:31:20.453Z,2.45
2023-02-25T09:32:20.433Z,2.44
2023-02-25T09:33:20.274Z,2.51
2023-02-25T09:34:21.284Z,2.46
2023-02-25T09:35:20.307Z,2.49
2023-02-25T09:36:20.253Z,2.63
2023-02-25T09:37:20.252Z,2.69
2023-02-25T09:38:20.240Z,2.56
2023-02-25T09:39:20.225Z,2.70
2023-02-25T09:40:20.278Z,2.77
2023-02-25T09:41:20.322Z,2.81
2023-02-25T09:42:20.201Z,2.81
2023-02-25T09:43:20.198Z,2.88
2023-02-25T09:44:20.222Z,2.85
2023-02-25T09:45:20.226Z,2.91
2023-02-25T09:46:20.247Z,2.91
2023-02-25T09:47:20.258Z,3.03
2023-02-25T09:48:20.152Z,2.98
2023-02-25T09:49:20.171Z,3.00
2023-02-25T09:50:20.158Z,2.87
2023-02-25T09:51:20.130Z,2.92
2023-02-25T09:52:20.119Z,2.98
2023-02-25T09:53:20.114Z,2.98
2023-02-25T09:54:20.120Z,3.06
2023-02-25T09:55:20.145Z,2.94
2023-02-25T09:56:20.080Z,2.89
2023-02-25T09:57:20.074Z,2.97
2023-02-25T09:58:20.055Z,2.97
2023-02-25T09:59:20.048Z,3.16
2023-02-25T10:00:20.189Z,3.12
2023-02-25T10:01:20.028Z,3.09
2023-02-25T10:02:20.112Z,3.06
2023-02-25T10:03:20.164Z,3.15
2023-02-25T10:04:20.019Z,3.18
2023-02-25T10:05:20.102Z,3.27
2023-02-25T10:06:19.993Z,3.24
2023-02-25T10:07:19.990Z,3.20
2023-02-25T10:08:19.984Z,3.40
2023-02-25T10:09:19.958Z,3.42
2023-02-25T10:10:20.060Z,3.49
2023-02-25T10:11:19.946Z,3.43
2023-02-25T10:12:20.351Z,3.50
2023-02-25T10:13:20.936Z,3.64
2023-02-25T10:14:19.941Z,3.65
2023-02-25T10:15:19.937Z,3.65
2023-02-25T10:16:19.915Z,3.65
2023-02-25T10:17:19.891Z,3.75
2023-02-25T10:18:19.900Z,3.79
2023-02-25T10:19:19.856Z,3.90
2023-02-25T10:20:19.941Z,3.76
2023-02-25T10:21:19.834Z,3.76
2023-02-25T10:22:19.846Z,3.89
2023-02-25T10:23:19.818Z,3.92
2023-02-25T10:24:19.797Z,3.90
2023-02-25T10:25:20.846Z,3.96
2023-02-25T10:26:19.782Z,3.92
2023-02-25T10:27:19.780Z,4.00
2023-02-25T10:28:19.789Z,4.01
2023-02-25T10:29:19.791Z,4.07
2023-02-25T10:30:19.775Z,4.07
2023-02-25T10:31:19.849Z,4.00
2023-02-25T10:32:19.915Z,4.07
2023-02-25T10:33:19.723Z,4.04
2023-02-25T10:34:19.698Z,4.15
2023-02-25T10:35:19.715Z,4.08
2023-02-25T10:36:19.696Z,3.96
2023-02-25T10:37:19.674Z,3.90
2023-02-25T10:38:19.659Z,3.75
2023-02-25T10:39:19.661Z,3.53
2023-02-25T10:40:19.658Z,3.50
2023-02-25T10:41:19.636Z,3.50
2023-02-25T10:42:19.621Z,3.53
2023-02-25T10:43:19.609Z,3.47
2023-02-25T10:44:19.602Z,3.52
2023-02-25T10:45:19.604Z,3.47
2023-02-25T10:46:19.614Z,3.46
2023-02-25T10:47:19.570Z,3.40
2023-02-25T10:48:19.564Z,3.33
2023-02-25T10:49:19.547Z,3.21
2023-02-25T10:50:19.560Z,3.27
2023-02-25T10:51:19.550Z,3.21
2023-02-25T10:52:19.548Z,3.18
2023-02-25T10:53:19.516Z,3.13
2023-02-25T10:54:19.504Z,3.09
2023-02-25T10:55:19.530Z,2.58
2023-02-25T10:56:19.504Z,2.20
2023-02-25T10:57:19.487Z,1.73
2023-02-25T10:58:19.469Z,1.44
2023-02-25T10:59:19.473Z,1.25
2023-02-25T11:00:19.478Z,0.98
2023-02-25T11:01:19.528Z,0.86
2023-02-25T11:02:20.566Z,0.85
2023-02-25T11:03:19.430Z,0.86
2023-02-25T11:04:51.323Z,0.88
2023-02-25T11:05:19.432Z,0.97
2023-02-25T11:06:21.181Z,0.96
2023-02-25T11:07:19.400Z,0.97
2023-02-25T11:08:19.396Z,0.89
2023-02-25T11:09:19.410Z,1.07
2023-02-25T11:10:19.395Z,1.08
2023-02-25T11:11:19.375Z,1.14
2023-02-25T11:12:19.385Z,1.21
2023-02-25T11:13:19.362Z,1.26
2023-02-25T11:14:19.374Z,1.34
2023-02-25T11:15:19.355Z,1.36
2023-02-25T11:16:19.422Z,1.39
2023-02-25T11:17:19.328Z,1.34
2023-02-25T11:18:19.319Z,1.46
2023-02-25T11:19:19.345Z,1.57
2023-02-25T11:20:19.318Z,1.61
2023-02-25T11:21:19.318Z,1.64
2023-02-25T11:22:19.285Z,1.68
2023-02-25T11:23:19.275Z,1.69
2023-02-25T11:24:19.265Z,1.72
2023-02-25T11:25:19.254Z,1.83
2023-02-25T11:26:19.297Z,1.82
2023-02-25T11:27:19.264Z,1.87
2023-02-25T11:28:19.242Z,1.91
2023-02-25T11:29:19.246Z,2.01
2023-02-25T11:30:19.216Z,2.19
2023-02-25T11:31:20.301Z,2.30
2023-02-25T11:32:19.352Z,2.51
2023-02-25T11:33:19.198Z,2.55
2023-02-25T11:34:19.184Z,2.66
2023-02-25T11:35:19.251Z,2.61
2023-02-25T11:36:19.195Z,2.84
2023-02-25T11:37:19.180Z,2.91
2023-02-25T11:38:19.164Z,2.97
2023-02-25T11:39:19.157Z,2.88
2023-02-25T11:40:19.147Z,2.88
2023-02-25T11:41:19.155Z,2.97
2023-02-25T11:42:19.131Z,3.03
2023-02-25T11:43:19.109Z,3.05
2023-02-25T11:44:19.097Z,3.00
2023-02-25T11:45:19.088Z,3.02
2023-02-25T11:46:19.157Z,2.95
2023-02-25T11:47:19.088Z,2.98
2023-02-25T11:48:19.064Z,2.94
2023-02-25T11:49:19.061Z,3.09
2023-02-25T11:50:19.041Z,3.10
2023-02-25T11:51:19.029Z,3.06
2023-02-25T11:52:19.056Z,3.05
2023-02-25T11:53:19.055Z,2.97
2023-02-25T11:54:19.015Z,2.92
2023-02-25T11:55:18.993Z,2.81
2023-02-25T11:56:18.993Z,2.87
2023-02-25T11:57:19.030Z,2.82
2023-02-25T11:58:18.976Z,2.88
2023-02-25T11:59:18.955Z,2.84
2023-02-25T12:00:18.936Z,2.79
2023-02-25T12:01:18.954Z,2.85
2023-02-25T12:02:18.930Z,2.79
2023-02-25T12:03:19.909Z,2.88
2023-02-25T12:04:18.904Z,2.85
2023-02-25T12:05:18.933Z,2.97
2023-02-25T12:06:18.907Z,3.10
2023-02-25T12:07:18.877Z,3.28
2023-02-25T12:08:18.861Z,3.33
2023-02-25T12:09:18.860Z,3.47
2023-02-25T12:10:18.947Z,3.52
2023-02-25T12:11:18.870Z,3.53
2023-02-25T12:12:18.833Z,3.53
2023-02-25T12:13:18.889Z,3.46
2023-02-25T12:14:18.812Z,3.28
2023-02-25T12:15:18.787Z,3.36
2023-02-25T12:16:18.846Z,3.27
2023-02-25T12:17:18.777Z,3.36
2023-02-25T12:18:18.772Z,3.46
2023-02-25T12:19:18.761Z,3.46
2023-02-25T12:20:18.742Z,3.47
2023-02-25T12:21:18.762Z,3.67
2023-02-25T12:22:18.717Z,3.72
2023-02-25T12:23:18.716Z,3.70
2023-02-25T12:24:18.753Z,3.80
2023-02-25T12:25:18.694Z,3.50
2023-02-25T12:26:18.700Z,3.53
2023-02-25T12:27:18.669Z,3.24
2023-02-25T12:28:18.667Z,3.23
2023-02-25T12:29:18.652Z,3.33
2023-02-25T12:30:18.652Z,3.39
2023-02-25T12:31:18.676Z,3.46
2023-02-25T12:32:18.722Z,3.36
2023-02-25T12:33:18.615Z,3.46
2023-02-25T12:34:19.679Z,3.52
2023-02-25T12:35:18.587Z,3.54
2023-02-25T12:36:18.595Z,3.58
2023-02-25T12:37:18.570Z,3.47
2023-02-25T12:38:18.562Z,3.44
2023-02-25T12:39:18.555Z,3.43
2023-02-25T12:40:18.533Z,3.50
2023-02-25T12:41:18.573Z,3.44
2023-02-25T12:42:18.518Z,3.47
2023-02-25T12:43:18.500Z,3.43
2023-02-25T12:44:18.503Z,3.44
2023-02-25T12:45:18.491Z,3.62
2023-02-25T12:46:18.502Z,3.54
2023-02-25T12:47:18.470Z,3.57
2023-02-25T12:48:18.468Z,3.52
2023-02-25T12:49:18.443Z,3.52
2023-02-25T12:50:18.456Z,3.58
2023-02-25T12:51:18.455Z,3.58
2023-02-25T12:52:18.413Z,3.53
2023-02-25T12:53:18.404Z,3.65
2023-02-25T12:54:18.430Z,3.53
2023-02-25T12:55:18.385Z,3.52
2023-02-25T12:56:18.389Z,3.67
2023-02-25T12:57:18.356Z,3.58
2023-02-25T12:58:18.360Z,3.42
2023-02-25T12:59:18.346Z,3.49
2023-02-25T13:00:18.332Z,3.43
2023-02-25T13:01:18.371Z,3.42
2023-02-25T13:02:18.358Z,3.42
2023-02-25T13:03:18.369Z,3.33
2023-02-25T13:04:18.310Z,3.30
2023-02-25T13:05:18.267Z,3.18
2023-02-25T13:06:18.291Z,3.18
2023-02-25T13:07:18.253Z,3.13
2023-02-25T13:08:18.240Z,3.06
2023-02-25T13:09:18.232Z,2.81
2023-02-25T13:10:18.241Z,2.84
2023-02-25T13:11:18.218Z,2.79
2023-02-25T13:12:18.199Z,2.88
2023-02-25T13:13:18.192Z,2.81
2023-02-25T13:14:18.199Z,2.92
2023-02-25T13:15:18.171Z,3.00
2023-02-25T13:16:18.220Z,2.79
2023-02-25T13:17:18.161Z,2.85
2023-02-25T13:18:18.136Z,2.95